Amanda Park, WA

11:33 PM PDT on August 01, 2014 (GMT -0700)
Moclips (KWAMOCLI2) Elev 52 ft | 47.24 °N, 124.21 °W | Change Station

Current weather conditions updated 5 seconds ago

Clear
Clear
54.3 °F
Feels Like 54.3 °F
N
1.0
Wind Variable Wind from WSW
Gusts 3.0 mph

Tomorrow is forecast to be Much Cooler than today.

Today
High -- | Low -- °F
--% Chance of Precip.
Yesterday
High -- | Low -- °F
Precip. -- in
5:54 AM 8:49 PM
Waxing Crescent, 33% visible
Pressure 30.00 in
Visibility 5.0 miles
Clouds Clear
Dew Point 53 °F
Humidity 96%
Rainfall 0.00 in
Snow Depth Not available.
UV 0.0 out of 12
Pollen 3.50 out of 12
PM2.5 Good
Flu Activity Not available.
METAR KHQM 020553Z AUTO 26004KT 5SM BR CLR 15/13 A2999 RMK AO2 SLP158 T01500133 10222 20150 58002

More Conditions Fewer Conditions

Pressure 30.00 in
Visibility 5.0 miles
Clouds Clear
Dew Point 53 °F
Humidity 96%
Rainfall 0.00 in
Snow Depth Not available.
UV 0.0 out of 12
Pollen 3.50 out of 12
PM2.5 Good
Flu Activity Not available.
METAR KHQM 020553Z AUTO 26004KT 5SM BR CLR 15/13 A2999 RMK AO2 SLP158 T01500133 10222 20150 58002

More Conditions Fewer Conditions

10-Day Weather Forecast

Almanac

Astronomy

Aug. 01, 2014 Rise Set
Actual Time 5:54 AM PDT 8:49 PM PDT
Civil Twilight 5:18 AM PDT 9:25 PM PDT
Nautical Twilight 4:32 AM PDT 10:11 PM PDT
Astronomical Twilight 3:36 AM PDT 11:06 PM PDT
Moon 11:50 AM PDT (8/1) 11:09 PM PDT (8/1)
Length of Visible Light 16h 07m
Length of Day
14h 55m
Tomorrow will be 2m 40s shorter.
Waxing Crescent, 33% of the Moon is Illuminated
Aug 2
Waxing Crescent
Aug 3
First Quarter
Aug 10
Full
Aug 17
Last Quarter
Aug 25
New

Community

WunderPhotos

Upload Photos

1,739,830 photos uploaded!

Nearby

Air Quality

  Air Quality AQ Index Pollutant
Yesterday Good
PM2.5
Current Good
PM2.5

Snow Depth

Station Depth Elevation
Dungeness 5 in 4100 ft
Burnt Mountain 0 in 4200 ft
Alpine Meadows 0 in 3500 ft
Meadows Pass 0 in 3500 ft
Olallie Meadows 2 in 3700 ft

Earthquake Activity

City Distance Mag. Time & Date
Belfair, Washington 57 miles 3.5 4:04 AM PDT
2014-07-28
Minimum magnitude displayed is 2.5.

Coastal Water Temperatures

Place Temperature
Westport, WA 57.9 °F
Astoria, OR 69.1 °F
La Push, WA 50.0 °F

Nearby Weather Stations

Station Location Temp. Dew Point Humidity Wind Precip. Elev Updated Type
RAWS BLACK KNOB WA, Amanda Park, WA 55 °F 53 °F 94% NW  at  6 mph 0.00 in / hr 618 ft 10:31 PM PDT MADIS
Moclips, Moclips, WA 54.3 °F 53 °F 96% WSW  at  1.0 mph 0.00 in / hr 52 ft 11:33 PM PDT Rapid Fire
MesoWest Queets , Taholah, WA 57 °F 55 °F 93% NW  at  2 mph 0.00 in / hr 71 ft 10:10 PM PDT MADIS
Humptulips / Axford Prairie, Humptulips, WA 55.8 °F 55 °F 96% NE  at  0.0 mph 0.00 in / hr 165 ft 11:30 PM PDT Normal
Copalis Beach, WA 53.9 °F 53 °F 96% NW  at  0.0 mph 0.00 in / hr 15 ft 11:28 PM PDT Normal
HADS HAYWIRE RIDGE NEAR WEATHERMAX RI WA, Matlock, WA 68 °F - - North  at  - 0.00 in / hr 1849 ft 10:30 PM PDT MADIS

Show More Stations Show Fewer Stations